Time;durP1;ratioP1;P1;durP2;ratioP2;P2;SDS_P1;SDS_P2;PMS_P1;PMS_P2;Temp;Humidity;BMP_temperature;BMP_pressure;BME280_temperature;BME280_humidity;BME280_pressure;Samples;Min_cycle;Max_cycle;Signal;HPM_P1;HPM_P2
2023/11/04 00:00:00;;;;;;;3.70;1.90;;;;;;;5.81;100.00;97755.73;136773;1275;22387;-82
2023/11/04 00:03:01;;;;;;;3.50;2.40;;;;;;;5.84;100.00;97756.29;136784;1274;22217;-82
2023/11/04 00:06:01;;;;;;;3.00;1.90;;;;;;;5.85;100.00;97760.30;136773;1280;22435;-82
2023/11/04 00:09:02;;;;;;;2.70;1.70;;;;;;;5.87;100.00;97766.05;136773;1279;23132;-82
2023/11/04 00:12:03;;;;;;;1.90;1.60;;;;;;;5.89;100.00;97772.77;136772;1279;22397;-81
2023/11/04 00:15:05;;;;;;;4.90;2.50;;;;;;;5.90;100.00;97776.61;136768;1279;22276;-82
2023/11/04 00:18:05;;;;;;;4.90;2.30;;;;;;;5.92;100.00;97781.80;136728;1279;22399;-82
2023/11/04 00:21:10;;;;;;;4.70;3.20;;;;;;;5.92;100.00;97781.77;136786;1277;22416;-82
2023/11/04 00:24:11;;;;;;;5.10;2.60;;;;;;;5.93;100.00;97783.92;136767;1276;22225;-82
2023/11/04 00:27:11;;;;;;;4.50;3.00;;;;;;;5.95;100.00;97785.44;136638;1279;22379;-81
2023/11/04 00:30:15;;;;;;;3.50;2.60;;;;;;;5.97;100.00;97789.80;136754;1279;22371;-81
2023/11/04 00:33:16;;;;;;;2.30;1.90;;;;;;;5.98;100.00;97794.91;136633;1279;22420;-81
2023/11/04 00:36:17;;;;;;;2.30;1.90;;;;;;;5.99;100.00;97797.58;136758;1279;22424;-82
2023/11/04 00:39:17;;;;;;;2.90;1.70;;;;;;;6.00;100.00;97803.44;136746;1278;22465;-82
2023/11/04 00:42:18;;;;;;;2.20;1.70;;;;;;;6.01;100.00;97804.85;136782;1279;22381;-82
2023/11/04 00:45:18;;;;;;;3.00;1.40;;;;;;;6.02;100.00;97807.73;136782;1273;23151;-83
2023/11/04 00:48:19;;;;;;;3.10;1.80;;;;;;;6.03;100.00;97807.90;136771;1279;22266;-82
2023/11/04 00:51:21;;;;;;;2.60;1.70;;;;;;;6.04;100.00;97810.13;136782;1279;22405;-82
2023/11/04 00:54:22;;;;;;;2.80;1.40;;;;;;;6.04;100.00;97819.36;136786;1279;22455;-82
2023/11/04 00:57:23;;;;;;;1.90;1.60;;;;;;;6.06;100.00;97821.48;136761;1279;22476;-82
2023/11/04 01:00:26;;;;;;;2.00;1.80;;;;;;;6.06;100.00;97820.71;136774;1279;22454;-82
2023/11/04 01:03:28;;;;;;;2.00;1.50;;;;;;;6.08;100.00;97827.56;136804;1279;22463;-83
2023/11/04 01:06:29;;;;;;;1.30;1.20;;;;;;;6.08;100.00;97826.27;136683;1279;23344;-82
2023/11/04 01:09:29;;;;;;;2.30;1.70;;;;;;;6.09;100.00;97828.80;136759;1279;23239;-79
2023/11/04 01:12:30;;;;;;;2.50;1.70;;;;;;;6.11;100.00;97829.42;136755;1279;23094;-81
2023/11/04 01:15:30;;;;;;;2.40;1.40;;;;;;;6.13;100.00;97833.27;136778;1277;23319;-82
2023/11/04 01:18:31;;;;;;;2.60;1.50;;;;;;;6.13;100.00;97837.36;136729;1279;22509;-81
2023/11/04 01:21:31;;;;;;;1.80;1.70;;;;;;;6.14;100.00;97840.27;136634;1280;23198;-82
2023/11/04 01:24:32;;;;;;;3.50;1.40;;;;;;;6.14;100.00;97841.27;136620;1279;22462;-82
2023/11/04 01:27:33;;;;;;;1.80;1.70;;;;;;;6.15;100.00;97846.98;136735;1279;22643;-82
2023/11/04 01:30:33;;;;;;;2.90;1.60;;;;;;;6.15;100.00;97848.88;136755;1279;22528;-82
2023/11/04 01:33:34;;;;;;;2.30;1.70;;;;;;;6.16;100.00;97851.43;136740;1279;23555;-83
2023/11/04 01:36:35;;;;;;;2.40;1.70;;;;;;;6.16;100.00;97852.08;136707;1279;23212;-82
2023/11/04 01:39:36;;;;;;;3.70;1.80;;;;;;;6.17;100.00;97852.67;136624;1279;22450;-82
2023/11/04 01:42:42;;;;;;;6.00;1.70;;;;;;;6.18;100.00;97857.44;136648;1279;22458;-82
2023/11/04 01:45:43;;;;;;;2.70;1.70;;;;;;;6.20;100.00;97857.09;136746;1276;22454;-82
2023/11/04 01:48:44;;;;;;;2.30;1.80;;;;;;;6.21;100.00;97862.02;136710;1279;22437;-82
2023/11/04 01:51:45;;;;;;;1.90;1.70;;;;;;;6.22;100.00;97864.73;136736;1279;22427;-83
2023/11/04 01:54:46;;;;;;;4.00;2.30;;;;;;;6.23;100.00;97863.84;136732;1279;22485;-82
2023/11/04 01:57:47;;;;;;;2.30;2.10;;;;;;;6.25;100.00;97865.59;136734;1279;22240;-82
2023/11/04 02:00:48;;;;;;;4.20;1.90;;;;;;;6.25;100.00;97870.06;136700;1279;23230;-82
2023/11/04 02:03:51;;;;;;;2.10;1.90;;;;;;;6.27;100.00;97875.45;136614;1279;22428;-82
2023/11/04 02:06:52;;;;;;;1.80;1.50;;;;;;;6.29;100.00;97878.94;136692;1279;22436;-83
2023/11/04 02:09:52;;;;;;;1.70;1.60;;;;;;;6.31;100.00;97880.16;136644;1279;22371;-80
2023/11/04 02:12:53;;;;;;;2.70;1.50;;;;;;;6.32;100.00;97877.42;136730;1279;22439;-82
2023/11/04 02:15:54;;;;;;;2.30;1.90;;;;;;;6.33;100.00;97879.52;136744;1278;22363;-82
2023/11/04 02:18:55;;;;;;;17.10;2.50;;;;;;;6.34;100.00;97884.69;136728;1279;22248;-81
2023/11/04 02:21:55;;;;;;;;;;;;;;;6.35;100.00;97885.90;136749;1280;22427;-83
2023/11/04 02:24:58;;;;;;;1.80;1.60;;;;;;;6.36;100.00;97888.34;136730;1279;22373;-82
2023/11/04 02:27:59;;;;;;;1.90;1.60;;;;;;;6.35;100.00;97892.35;136727;1279;22398;-81
2023/11/04 02:30:59;;;;;;;3.70;2.00;;;;;;;6.38;100.00;97896.66;136668;1279;22399;-82
2023/11/04 02:34:00;;;;;;;2.30;2.00;;;;;;;6.39;100.00;97904.69;136756;1279;22332;-81
2023/11/04 02:37:01;;;;;;;2.80;2.30;;;;;;;6.41;100.00;97906.45;136757;1279;22433;-82
2023/11/04 02:40:03;;;;;;;2.40;2.20;;;;;;;6.41;100.00;97915.27;136711;1279;23550;-81
2023/11/04 02:43:03;;;;;;;2.90;1.90;;;;;;;6.42;100.00;97920.99;136631;1279;22424;-83
2023/11/04 02:46:04;;;;;;;2.60;2.20;;;;;;;6.44;100.00;97919.23;136727;1279;23316;-83
2023/11/04 02:49:05;;;;;;;2.90;2.40;;;;;;;6.45;100.00;97923.17;136812;1279;23172;-82
2023/11/04 02:52:06;;;;;;;6.60;2.80;;;;;;;6.45;100.00;97934.20;136676;1279;22396;-83
2023/11/04 02:55:07;;;;;;;2.90;2.40;;;;;;;6.46;100.00;97933.23;136785;1279;22427;-80
2023/11/04 02:58:08;;;;;;;3.70;3.00;;;;;;;6.46;100.00;97939.42;136638;1279;23184;-82
2023/11/04 03:01:08;;;;;;;4.90;2.40;;;;;;;6.48;100.00;97938.41;136754;1279;22505;-80
2023/11/04 03:04:10;;;;;;;4.00;2.60;;;;;;;6.48;100.00;97937.65;136763;1279;22411;-82
2023/11/04 03:07:10;;;;;;;3.90;2.50;;;;;;;6.48;100.00;97935.80;136733;1279;22467;-83
2023/11/04 03:10:11;;;;;;;4.10;2.60;;;;;;;6.48;100.00;97942.03;136658;1279;22489;-82
2023/11/04 03:13:11;;;;;;;4.70;2.90;;;;;;;6.49;100.00;97947.51;136774;1279;23389;-82
2023/11/04 03:16:21;;;;;;;4.60;2.80;;;;;;;6.50;100.00;97947.79;136757;1272;23273;-83
2023/11/04 03:19:22;;;;;;;3.70;2.70;;;;;;;6.50;100.00;97949.49;136763;1279;22496;-82
2023/11/04 03:22:23;;;;;;;;;;;;;;;6.53;100.00;97953.41;136773;1279;23240;-83
2023/11/04 03:25:23;;;;;;;4.00;2.60;;;;;;;6.54;100.00;97953.30;136753;1279;22281;-83
2023/11/04 03:28:27;;;;;;;3.80;2.30;;;;;;;6.54;100.00;97959.21;136682;1279;22436;-82
2023/11/04 03:31:28;;;;;;;2.70;2.40;;;;;;;6.55;100.00;97960.39;136766;1279;22401;-82
2023/11/04 03:34:28;;;;;;;2.70;2.20;;;;;;;6.55;100.00;97963.96;136728;1279;22404;-82
2023/11/04 03:37:28;;;;;;;3.10;2.20;;;;;;;6.56;100.00;97968.23;136774;1279;23611;-82
2023/11/04 03:40:29;;;;;;;4.90;2.40;;;;;;;6.58;100.00;97972.89;136750;1279;22152;-83
2023/11/04 03:43:30;;;;;;;2.60;2.20;;;;;;;6.59;100.00;97973.02;136742;1279;22443;-82
2023/11/04 03:46:30;;;;;;;4.40;2.10;;;;;;;6.58;100.00;97979.14;136742;1274;22457;-82
2023/11/04 03:49:31;;;;;;;3.80;1.90;;;;;;;6.58;100.00;97981.36;136751;1279;23574;-81
2023/11/04 03:52:31;;;;;;;2.10;1.90;;;;;;;6.58;100.00;97979.10;136735;1279;22287;-82
2023/11/04 03:55:32;;;;;;;2.30;1.70;;;;;;;6.59;100.00;97974.44;136760;1279;22491;-82
2023/11/04 03:58:32;;;;;;;3.80;2.20;;;;;;;6.58;100.00;97973.46;136734;1279;22365;-83
2023/11/04 04:01:38;;;;;;;2.10;1.70;;;;;;;6.59;100.00;97968.11;136750;1280;22411;-82
2023/11/04 04:04:39;;;;;;;2.80;1.80;;;;;;;6.58;100.00;97966.16;136766;1279;22466;-82
2023/11/04 04:07:39;;;;;;;2.00;1.70;;;;;;;6.55;100.00;97966.80;136718;1279;22396;-82
2023/11/04 04:10:40;;;;;;;1.70;1.60;;;;;;;6.53;100.00;97969.05;136757;1279;22406;-83
2023/11/04 04:13:40;;;;;;;3.70;1.60;;;;;;;6.50;100.00;97969.23;136769;1279;23121;-82
2023/11/04 04:16:42;;;;;;;2.90;1.90;;;;;;;6.48;100.00;97974.41;136750;1279;22371;-83
2023/11/04 04:19:42;;;;;;;4.40;1.90;;;;;;;6.45;100.00;97975.98;136748;1279;22376;-82
2023/11/04 04:22:43;;;;;;;2.10;1.40;;;;;;;6.43;100.00;97978.84;136753;1279;22260;-81
2023/11/04 04:25:44;;;;;;;;;;;;;;;6.42;100.00;97985.52;136721;1278;22391;-82
2023/11/04 04:28:45;;;;;;;1.90;1.50;;;;;;;6.39;100.00;97993.60;136769;1279;22388;-82
2023/11/04 04:31:45;;;;;;;3.10;2.10;;;;;;;6.35;100.00;97994.75;136742;1279;22374;-82
2023/11/04 04:34:46;;;;;;;3.10;1.30;;;;;;;6.33;100.00;98001.87;136765;1279;22369;-82
2023/11/04 04:37:47;;;;;;;2.40;1.60;;;;;;;6.31;100.00;98010.80;136727;1272;22406;-82
2023/11/04 04:40:47;;;;;;;1.50;1.40;;;;;;;6.29;100.00;98014.23;136738;1279;22403;-82
2023/11/04 04:43:48;;;;;;;1.80;1.70;;;;;;;6.30;100.00;98016.14;136661;1279;23756;-82
2023/11/04 04:46:49;;;;;;;2.90;1.50;;;;;;;6.31;100.00;98018.83;136775;1277;22388;-82
2023/11/04 04:49:49;;;;;;;7.50;2.00;;;;;;;6.32;100.00;98021.67;136772;1279;22309;-82
2023/11/04 04:52:50;;;;;;;2.50;1.70;;;;;;;6.33;100.00;98027.85;136739;1279;22374;-82
2023/11/04 04:55:53;;;;;;;2.70;1.90;;;;;;;6.35;100.00;98031.10;136780;1279;23177;-82
2023/11/04 04:58:54;;;;;;;3.50;1.80;;;;;;;6.38;100.00;98034.69;136753;1279;22550;-81
2023/11/04 05:01:56;;;;;;;5.20;2.50;;;;;;;6.39;100.00;98039.03;136737;1272;22490;-82
2023/11/04 05:04:56;;;;;;;3.50;2.40;;;;;;;6.40;100.00;98043.63;136782;1279;22392;-81
2023/11/04 05:07:57;;;;;;;6.50;2.30;;;;;;;6.42;100.00;98043.92;136758;1279;22526;-80
2023/11/04 05:10:58;;;;;;;3.70;2.10;;;;;;;6.44;100.00;98045.98;136753;1279;22544;-81
2023/11/04 05:13:58;;;;;;;2.70;2.00;;;;;;;6.46;100.00;98051.13;136736;1279;22436;-79
2023/11/04 05:17:02;;;;;;;4.10;2.10;;;;;;;6.47;100.00;98055.46;136758;1272;23136;-81
2023/11/04 05:20:04;;;;;;;3.50;2.60;;;;;;;6.47;100.00;98059.88;136783;1279;23257;-81
2023/11/04 05:23:04;;;;;;;3.00;2.10;;;;;;;6.47;100.00;98065.27;136742;1279;23260;-81
2023/11/04 05:26:05;;;;;;;3.40;2.60;;;;;;;6.46;100.00;98069.58;136745;1279;22250;-79
2023/11/04 05:29:05;;;;;;;9.40;2.30;;;;;;;6.46;100.00;98075.89;136760;1279;22533;-82
2023/11/04 05:32:07;;;;;;;4.50;2.00;;;;;;;6.46;100.00;98076.94;136760;1279;22418;-81
2023/11/04 05:35:08;;;;;;;3.60;2.50;;;;;;;6.45;100.00;98073.82;136660;1279;22438;-82
2023/11/04 05:38:09;;;;;;;4.70;2.50;;;;;;;6.43;100.00;98078.81;136737;1279;22483;-81
2023/11/04 05:41:10;;;;;;;3.10;2.90;;;;;;;6.41;100.00;98076.21;136723;1279;22448;-81
2023/11/04 05:44:10;;;;;;;4.90;3.00;;;;;;;6.39;100.00;98080.66;136743;1279;23202;-81
2023/11/04 05:47:12;;;;;;;7.10;3.60;;;;;;;6.39;100.00;98082.60;136734;1269;22453;-82
2023/11/04 05:50:12;;;;;;;6.80;4.30;;;;;;;6.38;100.00;98086.80;136737;1279;23275;-82
2023/11/04 05:53:14;;;;;;;10.40;5.30;;;;;;;6.37;100.00;98092.36;136757;1279;23245;-80
2023/11/04 05:56:19;;;;;;;7.90;4.80;;;;;;;6.36;100.00;98095.66;136749;1278;22411;-81
2023/11/04 05:59:23;;;;;;;9.50;4.70;;;;;;;6.34;100.00;98101.40;136739;1279;23615;-81
2023/11/04 06:02:23;;;;;;;;;;;;;;;6.31;100.00;98099.45;136764;1279;23204;-82
2023/11/04 06:05:24;;;;;;;6.80;4.10;;;;;;;6.29;100.00;98100.90;136716;1279;23052;-81
2023/11/04 06:08:25;;;;;;;5.40;3.70;;;;;;;6.28;100.00;98103.45;136730;1279;22384;-81
2023/11/04 06:11:26;;;;;;;6.80;3.50;;;;;;;6.29;100.00;98101.36;136741;1272;22383;-80
2023/11/04 06:14:28;;;;;;;10.30;4.80;;;;;;;6.31;100.00;98102.77;136767;1279;23123;-81
2023/11/04 06:17:29;;;;;;;7.70;4.10;;;;;;;6.31;100.00;98100.27;136748;1268;22481;-82
2023/11/04 06:20:30;;;;;;;8.10;4.10;;;;;;;6.32;100.00;98101.10;136717;1279;23068;-81
2023/11/04 06:23:31;;;;;;;;;;;;;;;6.33;100.00;98109.17;136752;1279;22449;-81
2023/11/04 06:26:32;;;;;;;4.50;3.80;;;;;;;6.33;100.00;98113.54;136737;1279;22439;-82
2023/11/04 06:29:32;;;;;;;4.90;3.40;;;;;;;6.33;100.00;98114.08;136645;1279;22366;-82
2023/11/04 06:32:33;;;;;;;8.20;3.90;;;;;;;6.33;100.00;98119.91;136750;1279;23024;-81
2023/11/04 06:35:34;;;;;;;8.60;3.70;;;;;;;6.33;100.00;98127.77;136744;1279;22306;-82
2023/11/04 06:38:37;;;;;;;10.90;4.20;;;;;;;6.34;100.00;98131.27;136753;1279;23136;-80
2023/11/04 06:41:40;;;;;;;8.00;4.30;;;;;;;6.35;100.00;98137.92;136762;1279;22411;-79
2023/11/04 06:44:40;;;;;;;7.20;3.90;;;;;;;6.36;100.00;98140.32;136770;1279;22470;-79
2023/11/04 06:47:43;;;;;;;7.60;3.60;;;;;;;6.37;100.00;98144.51;136731;1273;23557;-81
2023/11/04 06:50:52;;;;;;;5.90;4.10;;;;;;;6.38;100.00;98149.38;136725;1279;22438;-82
2023/11/04 06:53:57;;;;;;;10.20;4.00;;;;;;;6.40;100.00;98151.14;136714;1279;23225;-79
2023/11/04 06:56:57;;;;;;;8.60;3.90;;;;;;;6.44;100.00;98151.55;136734;1279;22429;-80
2023/11/04 06:59:58;;;;;;;8.90;5.10;;;;;;;6.51;100.00;98156.11;136763;1279;22447;-80
2023/11/04 07:02:59;;;;;;;5.60;4.30;;;;;;;6.60;100.00;98157.29;136736;1279;22531;-78
2023/11/04 07:05:59;;;;;;;9.90;5.00;;;;;;;6.69;100.00;98160.02;136745;1279;22425;-77
2023/11/04 07:09:00;;;;;;;7.50;5.90;;;;;;;6.81;100.00;98166.36;136737;1279;22434;-77
2023/11/04 07:12:04;;;;;;;10.00;5.80;;;;;;;6.93;100.00;98161.14;136741;1279;22485;-76
2023/11/04 07:15:05;;;;;;;9.20;5.00;;;;;;;7.07;100.00;98159.02;136646;1279;23035;-76
2023/11/04 07:18:17;;;;;;;10.50;5.70;;;;;;;7.25;100.00;98158.16;136765;1276;23289;-74
2023/11/04 07:21:19;;;;;;;8.50;5.00;;;;;;;7.44;100.00;98158.11;136725;1279;22392;-75
2023/11/04 07:24:22;;;;;;;7.80;4.90;;;;;;;7.63;100.00;98156.39;136715;1279;23219;-76
2023/11/04 07:27:25;;;;;;;12.00;5.00;;;;;;;7.81;100.00;98157.29;136723;1279;22487;-77
2023/11/04 07:30:28;;;;;;;10.30;5.40;;;;;;;7.96;100.00;98157.01;136744;1279;22430;-76
2023/11/04 07:33:29;;;;;;;9.70;5.40;;;;;;;8.13;100.00;98155.69;136730;1279;22430;-75
2023/11/04 07:36:30;;;;;;;12.60;5.30;;;;;;;8.31;99.88;98152.40;136658;1279;22433;-71
2023/11/04 07:39:31;;;;;;;12.70;5.10;;;;;;;8.48;99.78;98155.97;136759;1279;22474;-72
2023/11/04 07:42:32;;;;;;;10.10;4.50;;;;;;;8.68;99.90;98155.64;136774;1279;22508;-74
2023/11/04 07:45:33;;;;;;;8.80;4.50;;;;;;;9.01;99.92;98153.08;136796;1279;22449;-74
2023/11/04 07:48:33;;;;;;;9.00;4.90;;;;;;;9.34;99.48;98155.14;136796;1272;22467;-75
2023/11/04 07:51:34;;;;;;;7.90;4.20;;;;;;;9.76;98.84;98155.61;136798;1279;22441;-74
2023/11/04 07:54:34;;;;;;;10.10;4.10;;;;;;;10.15;97.52;98153.66;136840;1279;22447;-75
2023/11/04 07:57:36;;;;;;;6.70;4.00;;;;;;;10.52;95.27;98150.11;136830;1279;22445;-74
2023/11/04 08:00:36;;;;;;;9.10;3.90;;;;;;;10.81;94.74;98151.33;136810;1279;22443;-74
2023/11/04 08:03:37;;;;;;;7.10;3.40;;;;;;;11.10;94.55;98147.55;136774;1279;23215;-75
2023/11/04 08:06:37;;;;;;;;;;;;;;;11.40;93.21;98145.77;136774;1279;23202;-75
2023/11/04 08:09:41;;;;;;;7.40;3.20;;;;;;;11.57;91.63;98140.59;136774;1279;23255;-75
2023/11/04 08:12:42;;;;;;;6.60;2.90;;;;;;;11.58;89.93;98139.35;136771;1279;22314;-74
2023/11/04 08:15:43;;;;;;;7.10;2.90;;;;;;;11.61;88.83;98135.55;136775;1279;22414;-75
2023/11/04 08:18:45;;;;;;;5.20;2.80;;;;;;;11.64;88.53;98131.23;136729;1272;22402;-75
2023/11/04 08:21:49;;;;;;;6.90;3.10;;;;;;;11.63;87.47;98128.92;136759;1279;22379;-76
2023/11/04 08:24:50;;;;;;;5.80;3.30;;;;;;;11.53;85.53;98130.12;136768;1279;22361;-76
2023/11/04 08:27:51;;;;;;;7.70;2.70;;;;;;;11.61;86.03;98128.86;136717;1279;22457;-75
2023/11/04 08:30:51;;;;;;;;;;;;;;;11.90;86.24;98134.27;136757;1279;22422;-75
2023/11/04 08:33:52;;;;;;;10.60;3.10;;;;;;;12.23;85.15;98132.09;136763;1279;22408;-75
2023/11/04 08:36:53;;;;;;;6.60;2.60;;;;;;;12.31;80.11;98133.20;136797;1279;22667;-76
2023/11/04 08:39:56;;;;;;;7.00;2.80;;;;;;;12.34;81.83;98133.98;136829;1279;22449;-77
2023/11/04 08:42:56;;;;;;;7.70;2.70;;;;;;;12.45;80.21;98135.66;136829;1279;23156;-76
2023/11/04 08:45:57;;;;;;;;;;;;;;;12.54;80.64;98141.09;136786;1279;23076;-76
2023/11/04 08:48:57;;;;;;;6.90;2.50;;;;;;;12.55;80.60;98140.41;136759;1276;22441;-76
2023/11/04 08:51:58;;;;;;;5.50;2.90;;;;;;;12.65;80.10;98142.61;136778;1279;23449;-76
2023/11/04 08:55:01;;;;;;;;;;;;;;;12.75;78.84;98145.16;136699;1279;23253;-76
2023/11/04 08:58:01;;;;;;;7.20;3.00;;;;;;;12.74;78.33;98141.03;136752;1279;23627;-75
2023/11/04 09:01:05;;;;;;;;;;;;;;;12.71;78.01;98141.23;136795;1279;22431;-76
2023/11/04 09:04:05;;;;;;;9.70;2.50;;;;;;;12.66;77.32;98134.67;136623;1279;22450;-76
2023/11/04 09:07:06;;;;;;;;;;;;;;;12.68;77.68;98133.19;136811;1279;22391;-77
2023/11/04 09:10:07;;;;;;;5.80;2.50;;;;;;;12.82;77.55;98133.25;136768;1279;22377;-76
2023/11/04 09:13:15;;;;;;;7.20;3.00;;;;;;;13.01;77.31;98132.80;136808;1279;22779;-76
2023/11/04 09:16:16;;;;;;;7.20;2.80;;;;;;;13.21;75.71;98131.06;136760;1279;22449;-76
2023/11/04 09:19:16;;;;;;;;;;;;;;;13.10;71.70;98124.55;136817;1272;23167;-76
2023/11/04 09:22:17;;;;;;;7.80;2.90;;;;;;;12.87;74.02;98132.64;136771;1279;22452;-74
2023/11/04 09:25:18;;;;;;;8.70;2.60;;;;;;;13.00;74.27;98131.23;136703;1279;23256;-76
2023/11/04 09:28:19;;;;;;;8.80;2.50;;;;;;;13.16;74.05;98132.73;136770;1279;22457;-73
2023/11/04 09:31:19;;;;;;;6.20;2.30;;;;;;;13.29;73.30;98133.55;136777;1279;22562;-74
2023/11/04 09:34:20;;;;;;;6.10;2.70;;;;;;;13.18;73.33;98132.98;136813;1279;22444;-76
2023/11/04 09:37:21;;;;;;;6.80;2.50;;;;;;;13.01;71.26;98135.31;136781;1279;22442;-75
2023/11/04 09:40:23;;;;;;;9.50;4.60;;;;;;;12.74;71.14;98133.81;136781;1279;22477;-76
2023/11/04 09:43:23;;;;;;;10.00;2.90;;;;;;;12.77;72.06;98134.40;136817;1279;22439;-76
2023/11/04 09:46:24;;;;;;;5.60;2.40;;;;;;;12.92;71.98;98131.90;136814;1279;22486;-76
2023/11/04 09:49:25;;;;;;;6.60;2.20;;;;;;;12.84;70.37;98129.58;136812;1278;22525;-76
2023/11/04 09:52:27;;;;;;;8.20;2.60;;;;;;;12.54;70.18;98125.01;136763;1279;23512;-76
2023/11/04 09:55:28;;;;;;;8.00;2.80;;;;;;;12.50;71.03;98117.09;136793;1279;22505;-76
2023/11/04 09:58:29;;;;;;;8.90;2.80;;;;;;;12.57;69.05;98117.42;136781;1279;22392;-76
2023/11/04 10:01:29;;;;;;;7.10;2.20;;;;;;;12.62;68.61;98115.14;136790;1279;22305;-76
2023/11/04 10:04:30;;;;;;;8.00;2.80;;;;;;;12.53;67.01;98109.19;136800;1279;22390;-76
2023/11/04 10:07:31;;;;;;;6.10;2.20;;;;;;;12.47;68.67;98103.93;136830;1279;22455;-76
2023/11/04 10:10:33;;;;;;;7.70;2.50;;;;;;;12.57;67.95;98088.39;136807;1279;22368;-76
2023/11/04 10:13:34;;;;;;;8.20;2.60;;;;;;;12.54;67.63;98086.29;136796;1279;22405;-76
2023/11/04 10:16:34;;;;;;;6.50;2.10;;;;;;;12.46;68.72;98088.33;136798;1279;23047;-76
2023/11/04 10:19:36;;;;;;;;;;;;;;;12.63;69.60;98087.79;136793;1276;22406;-76
2023/11/04 10:22:40;;;;;;;4.60;2.10;;;;;;;12.82;67.02;98082.20;136817;1279;22447;-76
2023/11/04 10:25:40;;;;;;;7.20;2.00;;;;;;;12.80;65.43;98073.17;136809;1279;22251;-76
2023/11/04 10:28:41;;;;;;;5.70;2.50;;;;;;;12.80;66.55;98067.37;136674;1278;157197;-76
2023/11/04 10:31:42;;;;;;;;;;;;;;;12.97;66.53;98064.49;136784;1276;22396;-76
2023/11/04 10:34:45;;;;;;;5.20;2.50;;;;;;;13.04;65.85;98064.02;136807;1275;22441;-76
2023/11/04 10:37:48;;;;;;;4.30;1.90;;;;;;;13.03;66.13;98064.38;136801;1279;22462;-76
2023/11/04 10:40:49;;;;;;;6.70;2.00;;;;;;;13.12;66.69;98056.00;136621;1279;22340;-76
2023/11/04 10:44:10;;;;;;;5.60;2.10;;;;;;;13.22;66.82;98054.74;136801;1279;22331;-76
2023/11/04 10:47:29;;;;;;;6.20;2.30;;;;;;;13.26;64.39;98051.31;136811;1279;22437;-76
2023/11/04 10:50:36;;;;;;;4.90;1.60;;;;;;;12.97;62.49;98046.52;136785;1278;22366;-76
2023/11/04 10:53:50;;;;;;;4.40;1.90;;;;;;;12.83;63.49;98047.20;136657;1279;22253;-75
2023/11/04 10:57:02;;;;;;;4.00;1.80;;;;;;;12.82;62.73;98046.13;136787;1279;22444;-76
2023/11/04 11:00:19;;;;;;;7.70;2.00;;;;;;;12.61;61.89;98043.73;136793;1279;22301;-75
2023/11/04 11:03:25;;;;;;;6.70;2.40;;;;;;;12.38;62.41;98046.04;136833;1279;22540;-75
2023/11/04 11:06:30;;;;;;;6.90;2.80;;;;;;;12.35;63.60;98045.50;136799;1279;22356;-74
2023/11/04 11:09:33;;;;;;;6.10;2.60;;;;;;;12.38;62.43;98043.17;136823;1279;22541;-74
2023/11/04 11:12:41;;;;;;;5.40;1.80;;;;;;;12.11;61.90;98040.17;136744;1279;22380;-74
2023/11/04 11:15:42;;;;;;;4.00;1.70;;;;;;;11.88;63.34;98042.22;136827;1279;23219;-74
2023/11/04 11:18:43;;;;;;;5.80;1.80;;;;;;;11.83;63.87;98045.91;136851;1279;22460;-74
2023/11/04 11:21:50;;;;;;;5.70;1.60;;;;;;;11.88;63.84;98044.51;136646;1278;22496;-74
2023/11/04 11:24:57;;;;;;;4.90;1.80;;;;;;;11.91;63.78;98045.59;136806;1279;22420;-74
2023/11/04 11:27:59;;;;;;;7.50;1.90;;;;;;;11.90;62.65;98039.78;136812;1279;22379;-73
2023/11/04 11:31:00;;;;;;;4.00;2.10;;;;;;;11.86;61.93;98032.50;136645;1279;22391;-73
2023/11/04 11:34:06;;;;;;;;;;;;;;;11.84;61.63;98033.95;136839;1279;22421;-73
2023/11/04 11:37:06;;;;;;;7.10;1.50;;;;;;;11.86;62.55;98037.17;136813;1279;23220;-73
2023/11/04 11:40:12;;;;;;;3.90;1.80;;;;;;;11.99;62.76;98035.55;136791;1279;22537;-73
2023/11/04 11:43:13;;;;;;;6.90;2.10;;;;;;;12.14;62.76;98025.23;136816;1279;22265;-73
2023/11/04 11:46:13;;;;;;;;;;;;;;;12.24;62.96;98017.17;136815;1279;23190;-73
2023/11/04 11:49:14;;;;;;;4.80;1.60;;;;;;;12.38;63.02;98017.31;136847;1279;22407;-73
2023/11/04 11:52:15;;;;;;;5.80;1.80;;;;;;;12.46;62.29;98016.03;136814;1277;22391;-73
2023/11/04 11:55:18;;;;;;;4.80;2.10;;;;;;;12.48;61.60;98007.23;136834;1279;22460;-73
2023/11/04 11:58:29;;;;;;;5.90;1.70;;;;;;;12.36;60.85;97999.41;136803;1279;23202;-73
2023/11/04 12:01:30;;;;;;;4.70;1.90;;;;;;;12.25;61.07;97997.07;136819;1279;22394;-73
2023/11/04 12:04:30;;;;;;;;;;;;;;;12.10;60.82;97995.33;136799;1279;22411;-74
2023/11/04 12:07:32;;;;;;;7.60;2.20;;;;;;;11.96;60.98;97985.98;136809;1279;23162;-74
2023/11/04 12:10:35;;;;;;;5.00;1.90;;;;;;;11.92;61.78;97985.77;136820;1279;23018;-74
2023/11/04 12:13:35;;;;;;;4.50;1.70;;;;;;;11.95;61.37;97977.88;136810;1276;22432;-74
2023/11/04 12:16:36;;;;;;;3.30;1.50;;;;;;;11.85;60.86;97969.39;136761;1279;22431;-74
2023/11/04 12:19:36;;;;;;;2.70;1.50;;;;;;;11.79;60.48;97962.81;136760;1279;22365;-76
2023/11/04 12:22:37;;;;;;;;;;;;;;;11.70;60.42;97961.96;136757;1278;22513;-76
2023/11/04 12:25:40;;;;;;;5.30;1.80;;;;;;;11.63;60.13;97964.43;136791;1279;22416;-76
2023/11/04 12:28:43;;;;;;;4.00;1.90;;;;;;;11.57;60.54;97956.27;136810;1279;22410;-76
2023/11/04 12:31:44;;;;;;;2.10;1.10;;;;;;;11.54;60.75;97952.39;136773;1279;22531;-75
2023/11/04 12:34:58;;;;;;;7.00;1.70;;;;;;;11.47;60.70;97948.10;136785;1279;22395;-76
2023/11/04 12:38:00;;;;;;;4.40;1.80;;;;;;;11.52;60.57;97939.45;136641;1279;23634;-76
2023/11/04 12:41:01;;;;;;;6.00;1.60;;;;;;;11.54;61.11;97934.77;136594;1279;22464;-76
2023/11/04 12:44:02;;;;;;;2.30;1.60;;;;;;;11.60;61.25;97934.46;136788;1279;22461;-75
2023/11/04 12:47:07;;;;;;;5.60;1.90;;;;;;;11.61;60.92;97931.55;136819;1279;23257;-76
2023/11/04 12:50:12;;;;;;;2.90;1.40;;;;;;;11.55;60.47;97932.05;136637;1279;23347;-75
2023/11/04 12:53:14;;;;;;;3.60;1.90;;;;;;;11.55;60.86;97922.58;136802;1275;22460;-75
2023/11/04 12:56:14;;;;;;;;;;;;;;;11.56;60.50;97925.64;136792;1279;22444;-75
2023/11/04 12:59:15;;;;;;;4.40;1.30;;;;;;;11.58;60.93;97922.77;136757;1279;22449;-75
2023/11/04 13:02:18;;;;;;;4.70;1.80;;;;;;;11.61;60.77;97931.94;136767;1278;22460;-75
2023/11/04 13:05:19;;;;;;;4.50;1.50;;;;;;;11.60;61.23;97934.27;136815;1279;22490;-74
2023/11/04 13:08:19;;;;;;;3.10;1.50;;;;;;;11.65;61.14;97933.09;136747;1279;22399;-74
2023/11/04 13:11:21;;;;;;;6.40;2.10;;;;;;;11.69;61.25;97921.67;136783;1277;22364;-74
2023/11/04 13:14:26;;;;;;;4.60;1.50;;;;;;;11.73;61.16;97919.13;136768;1279;22435;-74
2023/11/04 13:17:26;;;;;;;3.20;1.40;;;;;;;11.70;60.46;97919.95;136805;1279;23150;-74
2023/11/04 13:20:28;;;;;;;3.50;1.30;;;;;;;11.68;60.64;97922.87;136742;1279;22471;-75
2023/11/04 13:23:29;;;;;;;2.20;1.20;;;;;;;11.65;60.57;97917.44;136748;1279;23271;-75
2023/11/04 13:26:30;;;;;;;6.10;2.40;;;;;;;11.63;60.45;97917.02;136744;1279;22382;-74
2023/11/04 13:29:31;;;;;;;7.80;3.60;;;;;;;11.62;60.74;97922.88;136795;1279;23155;-74
2023/11/04 13:32:31;;;;;;;7.60;1.70;;;;;;;11.58;60.96;97919.54;136722;1279;23078;-74
2023/11/04 13:35:32;;;;;;;3.80;1.70;;;;;;;11.49;60.50;97925.67;136745;1279;22458;-74
2023/11/04 13:38:32;;;;;;;;;;;;;;;11.43;60.93;97930.61;136788;1279;23606;-75
2023/11/04 13:41:33;;;;;;;4.80;1.90;;;;;;;11.36;60.95;97924.84;136800;1279;22435;-74
2023/11/04 13:44:34;;;;;;;;;;;;;;;11.26;60.90;97920.93;136809;1280;22424;-74
2023/11/04 13:47:36;;;;;;;7.20;1.90;;;;;;;11.18;61.00;97914.55;136770;1279;22446;-74
2023/11/04 13:50:40;;;;;;;6.30;2.60;;;;;;;11.14;61.42;97911.25;136790;1279;23514;-74
2023/11/04 13:53:41;;;;;;;4.60;1.80;;;;;;;11.08;61.28;97909.77;136753;1278;22398;-74
2023/11/04 13:56:42;;;;;;;4.50;1.90;;;;;;;11.01;61.25;97906.07;136777;1279;22363;-74
2023/11/04 13:59:43;;;;;;;4.20;2.10;;;;;;;10.97;61.74;97905.70;136781;1280;22149;-74
2023/11/04 14:02:43;;;;;;;4.50;2.10;;;;;;;10.93;61.91;97900.77;136803;1279;22405;-74
2023/11/04 14:05:44;;;;;;;;;;;;;;;10.87;61.85;97900.10;136658;1279;22398;-74
2023/11/04 14:08:45;;;;;;;4.20;1.60;;;;;;;10.81;62.23;97895.80;136787;1279;22699;-74